Latest Weather Observations for Mount Bundey South (Defence)

IDD60801

Issued at 1:21 pm CST Sunday 16 December 2018 (issued every 10 minutes, with the page automatically refreshed every 10 minutes)

About weather observations | Map of weather stations | Latest weather observations for NT | Other Formats
Station Details ID: 014984 Name: MOUNT BUNDEY SOUTH (DEFENCE) Lat: -13.09 Lon: 131.85 Height: 55.0 m
Data from the previous 72 hours. | See also: Recent months at Mount Bundey South (Defence)
Date/Time
CST
Temp
°C
App
Temp
°C
Dew
Point
°C
Rel
Hum
%
Delta-T
°C
Wind Press
QNH
hPa
Press
MSL
hPa
Rain since
9am
mm
Dir  Spd
km/h
Gust
km/h
Spd
kts
Gust
kts
16/01:00pm 34.8 39.6 24.4 54 7.3 WNW 7 15 4 8 1007.8 1007.4 0.0
16/12:30pm 34.2 39.0 24.5 57 6.9 W 7 13 4 7 1008.3 1007.9 0.0
16/12:00pm 33.5 38.3 24.1 58 6.6 W 6 15 3 8 1008.6 1008.2 0.0
16/11:30am 33.5 38.1 24.7 60 6.2 W 9 15 5 8 1009.1 1008.7 0.0
16/11:00am 32.3 36.5 24.1 62 5.7 WSW 9 13 5 7 1009.4 1009.0 0.0
16/10:30am 32.2 37.0 24.5 64 5.4 W 7 17 4 9 1009.5 1009.1 0.0
16/10:00am 31.4 36.0 24.8 68 4.6 W 9 15 5 8 1009.4 1009.0 0.0
16/09:30am 30.4 35.0 24.8 72 3.9 W 9 17 5 9 1009.5 1009.1 0.0
16/09:00am 30.1 35.0 25.2 75 3.5 W 9 15 5 8 1009.4 1009.0 0.0
16/08:30am 29.3 34.2 25.3 79 2.8 WNW 9 15 5 8 1009.6 1009.2 0.0
16/08:00am 28.7 34.7 25.5 83 2.3 W 4 7 2 4 1009.9 1009.5 0.0
16/07:30am 27.4 34.1 25.4 89 1.4 CALM 0 0 0 0 1010.0 1009.6 0.0
16/07:00am 26.6 33.4 25.6 94 0.7 CALM 0 2 0 1 1010.0 1009.6 0.0
16/06:30am 26.3 33.1 25.6 96 0.5 CALM 0 4 0 2 1009.7 1009.3 0.0
16/06:00am 26.3 33.0 25.4 95 0.6 CALM 0 0 0 0 1008.6 1008.2 0.0
16/05:30am 26.4 32.6 25.2 93 0.8 N 2 4 1 2 1008.0 1007.6 0.0
16/05:00am 26.4 32.2 25.2 93 0.8 NW 4 6 2 3 1007.5 1007.1 0.0
16/04:30am 26.5 32.8 25.3 93 0.8 N 2 6 1 3 1007.0 1006.6 0.0
16/04:00am 26.6 32.5 25.4 93 0.8 NNW 4 6 2 3 1006.8 1006.4 0.0
16/03:30am 26.7 32.5 25.1 91 1.1 NNW 4 6 2 3 1006.6 1006.2 0.0
16/03:00am 26.9 33.0 25.1 90 1.3 WNW 2 6 1 3 1006.9 1006.5 0.0
16/02:30am 27.1 32.4 24.9 88 1.5 NW 6 7 3 4 1006.7 1006.3 0.0
16/02:00am 27.5 32.8 24.9 86 1.8 NW 6 7 3 4 1007.0 1006.6 0.0
16/01:30am 28.1 33.2 24.7 82 2.4 WNW 6 9 3 5 1007.5 1007.1 0.0
16/01:00am 27.8 33.7 25.4 87 1.7 W 4 7 2 4 1007.9 1007.5 0.0
16/12:30am 27.8 33.6 25.2 86 1.8 WNW 4 6 2 3 1007.9 1007.5 0.0
16/12:00am 28.2 33.9 25.0 83 2.2 NW 4 7 2 4 1008.3 1007.9 0.0
 
Date/Time
CST
Temp
°C
App
Temp
°C
Dew
Point
°C
Rel
Hum
%
Delta-T
°C
Wind Press
QNH
hPa
Press
MSL
hPa
Rain since
9am
mm
Dir  Spd
km/h
Gust
km/h
Spd
kts
Gust
kts
15/11:30pm 28.6 33.8 24.8 80 2.7 W 6 9 3 5 1008.4 1008.0 0.0
15/11:00pm 28.9 34.0 24.7 78 2.9 W 6 9 3 5 1008.1 1007.7 0.0
15/10:30pm 29.2 34.0 24.5 76 3.3 W 7 17 4 9 1007.7 1007.3 0.0
15/10:00pm 28.6 34.3 25.6 84 2.1 NW 6 9 3 5 1007.3 1006.9 0.0
15/09:30pm 28.7 34.2 25.3 82 2.4 NW 6 9 3 5 1006.9 1006.5 0.0
15/09:00pm 28.8 34.3 24.6 78 2.9 NNW 4 6 2 3 1006.8 1006.4 0.0
15/08:30pm 29.0 33.9 23.7 73 3.7 N 4 7 2 4 1006.5 1006.1 0.0
15/08:00pm 28.9 33.8 23.6 73 3.7 NNW 4 6 2 3 1006.1 1005.7 0.0
15/07:30pm 29.2 33.7 23.6 72 3.9 WNW 6 9 3 5 1005.8 1005.4 0.0
15/07:00pm 30.8 34.8 24.4 68 4.5 WNW 11 17 6 9 1005.8 1005.4 0.0
15/06:30pm 33.0 37.4 24.5 61 6.0 WNW 9 19 5 10 1004.9 1004.5 0.0
15/06:00pm 34.6 39.6 23.9 53 7.5 N 4 7 2 4 1004.4 1004.0 0.0
15/05:30pm 35.7 41.0 24.3 51 8.1 NNE 4 7 2 4 1004.5 1004.1 0.0
15/05:00pm 36.3 42.5 25.2 53 7.9 NNE 2 7 1 4 1004.2 1003.8 0.0
15/04:30pm 36.0 41.4 23.9 49 8.5 NNW 2 6 1 3 1004.4 1004.0 0.0
15/04:00pm 36.1 41.6 24.7 52 8.1 WNW 4 7 2 4 1004.7 1004.3 0.0
15/03:30pm 36.1 40.8 24.0 49 8.5 NNW 6 13 3 7 1004.7 1004.3 0.0
15/03:00pm 36.1 40.6 23.7 49 8.7 WNW 6 9 3 5 1005.0 1004.6 0.0
15/02:30pm 35.5 40.1 23.8 50 8.2 NW 6 13 3 7 1005.5 1005.1 0.0
15/02:00pm 35.1 39.3 23.1 49 8.3 N 6 9 3 5 1006.0 1005.6 0.0
15/01:30pm 35.1 40.6 24.7 55 7.4 SW 4 7 2 4 1006.4 1006.0 0.0
15/01:00pm 34.4 38.9 24.6 56 6.9 WSW 9 13 5 7 1006.8 1006.4 0.0
15/12:30pm 34.5 39.4 24.4 55 7.1 W 6 9 3 5 1007.2 1006.8 0.0
15/12:00pm 33.2 38.3 24.9 61 5.9 W 7 13 4 7 1007.8 1007.4 0.0
15/11:30am 33.1 38.1 24.8 61 5.9 WNW 7 20 4 11 1008.2 1007.8 0.0
15/11:00am 32.6 37.6 25.4 66 5.1 WNW 9 17 5 9 1008.7 1008.3 0.0
15/10:30am 32.0 37.7 25.6 69 4.6 W 6 11 3 6 1009.1 1008.7 0.0
15/10:00am 31.0 36.3 25.8 74 3.7 WSW 9 15 5 8 1009.0 1008.6 0.0
15/09:30am 29.9 35.6 25.6 78 3.1 W 6 9 3 5 1009.1 1008.7 0.0
15/09:00am 29.6 35.3 25.6 79 2.8 WNW 6 13 3 7 1008.9 1008.5 0.0
15/08:30am 29.0 35.1 25.6 82 2.4 WNW 4 7 2 4 1008.6 1008.2 0.0
15/08:00am 28.7 35.6 25.7 84 2.1 CALM 0 0 0 0 1008.6 1008.2 0.0
15/07:30am 27.3 33.8 25.7 91 1.1 N 2 4 1 2 1008.1 1007.7 0.0
15/07:00am 26.6 33.1 25.7 95 0.6 ESE 2 6 1 3 1008.5 1008.1 0.0
15/06:30am 26.1 31.7 25.4 96 0.5 E 6 7 3 4 1008.0 1007.6 0.0
15/06:00am 26.0 32.8 25.5 97 0.4 CALM 0 0 0 0 1007.2 1006.8 0.0
15/05:30am 26.0 32.6 25.3 96 0.5 CALM 0 0 0 0 1006.9 1006.5 0.0
15/05:00am 26.1 32.8 25.4 96 0.5 CALM 0 2 0 1 1006.6 1006.2 0.0
15/04:30am 26.3 33.0 25.4 95 0.6 CALM 0 0 0 0 1006.4 1006.0 0.0
15/04:00am 26.4 33.1 25.4 94 0.7 CALM 0 2 0 1 1006.1 1005.7 0.0
15/03:30am 26.6 32.9 25.4 93 0.8 W 2 4 1 2 1006.2 1005.8 0.0
15/03:00am 26.7 33.0 25.3 92 1.0 WNW 2 2 1 1 1006.6 1006.2 0.0
15/02:30am 26.9 33.0 25.1 90 1.3 WNW 2 6 1 3 1006.6 1006.2 0.0
15/02:00am 27.1 32.9 25.1 89 1.4 WNW 4 6 2 3 1007.0 1006.6 0.0
15/01:30am 27.4 33.1 25.0 87 1.7 NW 4 9 2 5 1006.9 1006.5 0.0
15/01:00am 27.6 32.9 25.0 86 1.8 WNW 6 11 3 6 1007.0 1006.6 0.0
15/12:30am 27.9 32.6 24.9 84 2.1 WNW 9 13 5 7 1006.7 1006.3 0.0
15/12:00am 28.2 33.3 25.0 83 2.2 W 7 15 4 8 1007.0 1006.6 0.0
 
Date/Time
CST
Temp
°C
App
Temp
°C
Dew
Point
°C
Rel
Hum
%
Delta-T
°C
Wind Press
QNH
hPa
Press
MSL
hPa
Rain since
9am
mm
Dir  Spd
km/h
Gust
km/h
Spd
kts
Gust
kts
14/11:30pm 28.4 33.5 25.0 82 2.4 W 7 17 4 9 1007.2 1006.8 0.0
14/11:00pm 28.5 34.0 24.7 80 2.7 WNW 4 7 2 4 1007.3 1006.9 0.0
14/10:30pm 28.9 34.3 24.5 77 3.1 WNW 4 6 2 3 1007.4 1007.0 0.0
14/10:00pm 29.5 34.0 23.9 72 3.9 W 7 13 4 7 1007.5 1007.1 0.0
14/09:30pm 29.7 35.0 25.0 76 3.3 WNW 6 11 3 6 1007.3 1006.9 0.0
14/09:00pm 29.9 35.5 25.4 77 3.2 WNW 6 11 3 6 1006.6 1006.2 0.0
14/08:30pm 30.4 35.8 25.2 74 3.7 WNW 6 11 3 6 1006.1 1005.7 0.0
14/08:00pm 31.1 35.6 23.7 64 5.1 NW 6 9 3 5 1005.7 1005.3 0.0
14/07:30pm 32.1 35.0 22.5 57 6.6 W 11 19 6 10 1005.3 1004.9 0.0
14/07:00pm 32.9 36.6 23.2 56 6.7 W 9 17 5 9 1004.7 1004.3 0.0
14/06:30pm 34.1 39.2 24.1 56 7.0 NW 4 6 2 3 1004.4 1004.0 0.0
14/06:00pm 34.0 38.2 23.1 53 7.6 NW 6 11 3 6 1004.3 1003.9 0.0
14/05:30pm 34.0 38.9 24.3 57 6.8 NW 6 9 3 5 1004.2 1003.8 0.0
14/05:00pm 34.1 38.7 23.8 55 7.2 NW 6 9 3 5 1004.0 1003.6 0.0
14/04:30pm 34.7 39.4 23.4 52 7.9 NW 4 7 2 4 1003.9 1003.5 0.0
14/04:00pm 35.0 39.5 23.0 49 8.3 W 4 7 2 4 1003.9 1003.5 0.0
14/03:30pm 35.8 40.0 23.1 48 8.9 WSW 6 9 3 5 1004.0 1003.6 0.0
14/03:00pm 35.7 39.6 23.0 48 8.8 WSW 7 13 4 7 1004.4 1004.0 0.0
14/02:30pm 35.1 38.9 22.8 49 8.5 SW 7 13 4 7 1004.9 1004.5 0.0
14/02:00pm 33.9 37.1 22.3 50 8.0 SW 9 17 5 9 1005.2 1004.8 0.0
14/01:30pm 34.1 37.9 22.8 51 7.8 WSW 7 15 4 8 1005.2 1004.8 0.0
14/01:00pm 33.4 37.3 22.5 52 7.5 WSW 6 13 3 7 1005.7 1005.3 0.0
14/12:30pm 33.0 36.1 21.5 50 7.8 SW 7 13 4 7 1006.3 1005.9 0.0
14/12:00pm 32.8 36.4 22.0 53 7.4 S 6 17 3 9 1006.8 1006.4 0.0
14/11:30am 32.3 36.9 23.8 61 5.9 WSW 6 9 3 5 1007.0 1006.6 0.0
14/11:00am 30.9 34.7 22.8 62 5.6 SSW 7 13 4 7 1007.2 1006.8 0.0
14/10:30am 30.6 34.5 22.5 62 5.5 SW 6 11 3 6 1007.5 1007.1 0.0
14/10:00am 30.0 34.0 22.7 65 5.0 WSW 6 9 3 5 1007.5 1007.1 0.0
14/09:30am 29.3 33.0 22.3 66 4.8 S 6 7 3 4 1007.8 1007.4 0.0
14/09:00am 28.8 32.8 22.8 70 4.1 SW 6 7 3 4 1008.2 1007.8 0.2
14/08:30am 27.8 32.1 22.7 74 3.5 SW 4 7 2 4 1008.2 1007.8 0.2
14/08:00am 27.5 31.7 22.4 73 3.4 SW 4 7 2 4 1007.8 1007.4 0.2
14/07:30am 26.9 31.1 22.5 77 3.0 SW 4 6 2 3 1007.4 1007.0 0.2
14/07:00am 26.5 31.8 23.0 81 2.4 CALM 0 0 0 0 1007.2 1006.8 0.2
14/06:30am 26.4 31.0 23.1 82 2.3 S 4 7 2 4 1007.0 1006.6 0.2
14/06:00am 26.9 31.1 23.4 81 2.4 SSW 7 13 4 7 1006.8 1006.4 0.2
14/05:30am 27.6 34.1 25.6 89 1.4 SSW 2 4 1 2 1006.5 1006.1 0.2
14/05:00am 27.5 34.0 25.7 90 1.3 WSW 2 6 1 3 1006.3 1005.9 0.2
14/04:30am 27.4 33.7 25.4 89 1.4 WNW 2 4 1 2 1005.9 1005.5 0.2
14/04:00am 27.4 32.8 25.2 88 1.5 NW 6 9 3 5 1005.4 1005.0 0.2
14/03:30am 27.2 32.5 25.0 88 1.5 NNW 6 9 3 5 1005.3 1004.9 0.2
14/03:00am 27.4 33.1 25.0 87 1.7 NNW 4 7 2 4 1005.6 1005.2 0.2
14/02:30am 27.3 32.9 24.9 87 1.7 W 4 6 2 3 1005.8 1005.4 0.2
14/02:00am 27.4 33.1 25.0 87 1.7 WNW 4 7 2 4 1005.8 1005.4 0.2
14/01:30am 27.5 32.8 24.9 86 1.8 W 6 9 3 5 1006.2 1005.8 0.2
14/01:00am 27.8 32.7 24.6 83 2.2 W 7 13 4 7 1006.4 1006.0 0.2
14/12:30am 28.1 32.9 24.1 79 2.8 WNW 6 9 3 5 1006.4 1006.0 0.2
14/12:00am 28.5 32.7 24.1 77 3.1 W 9 17 5 9 1006.5 1006.1 0.2
 
Date/Time
CST
Temp
°C
App
Temp
°C
Dew
Point
°C
Rel
Hum
%
Delta-T
°C
Wind Press
QNH
hPa
Press
MSL
hPa
Rain since
9am
mm
Dir  Spd
km/h
Gust
km/h
Spd
kts
Gust
kts
13/11:30pm 29.1 33.3 23.5 72 3.9 W 7 13 4 7 1007.2 1006.8 0.2
13/11:00pm 29.4 33.6 23.4 70 4.1 W 7 15 4 8 1007.3 1006.9 0.2
13/10:30pm 29.7 34.3 24.8 75 3.4 WNW 9 19 5 10 1006.2 1005.8 0.2
13/10:00pm 30.4 34.6 24.8 72 3.9 WNW 11 17 6 9 1007.3 1006.9 0.2
13/09:30pm 30.6 35.5 25.2 73 3.8 W 9 15 5 8 1007.3 1006.9 0.2
13/09:00pm 30.6 35.7 24.7 71 4.1 WNW 6 11 3 6 1007.2 1006.8 0.2
13/08:30pm 30.8 35.7 24.4 68 4.5 W 6 11 3 6 1006.9 1006.5 0.2
13/08:00pm 30.9 36.2 25.0 71 4.2 W 6 9 3 5 1006.1 1005.7 0.2
13/07:30pm 31.4 37.0 24.8 68 4.7 SW 4 7 2 4 1005.8 1005.4 0.2
13/07:00pm 31.8 36.5 23.9 63 5.5 SW 6 9 3 5 1005.2 1004.8 0.2
13/06:30pm 32.6 37.0 23.5 58 6.3 SW 6 11 3 6 1005.1 1004.7 0.2
13/06:00pm 33.7 38.9 24.8 59 6.3 W 6 9 3 5 1004.4 1004.0 0.2
13/05:30pm 34.2 39.3 24.7 57 6.7 WNW 6 11 3 6 1004.0 1003.6 0.2
13/05:00pm 34.4 39.3 25.2 58 6.5 WNW 9 17 5 9 1003.2 1002.8 0.2
13/04:30pm 35.3 40.7 25.5 57 7.0 WNW 7 15 4 8 1003.4 1003.0 0.2
13/04:00pm 35.3 39.0 24.6 54 7.6 NW 13 22 7 12 1003.6 1003.2 0.2
13/03:30pm 35.5 39.0 23.5 50 8.4 WNW 11 24 6 13 1003.8 1003.4 0.2
13/03:00pm 34.9 39.2 24.2 53 7.6 WNW 9 15 5 8 1004.3 1003.9 0.2
13/02:30pm 34.8 38.6 24.1 53 7.5 WNW 11 20 6 11 1004.7 1004.3 0.2
13/02:00pm 34.8 38.3 23.5 52 7.9 WNW 11 20 6 11 1005.1 1004.7 0.2
13/01:30pm 35.0 38.9 24.3 54 7.6 WNW 11 22 6 12 1005.5 1005.1 0.2

Other Formats:

Comma delimited format used in spreadsheet applications
http://www.bom.gov.au/fwo/IDD60801/IDD60801.94112.axf

JavaScript Object Notation format (JSON) in row-major order
http://www.bom.gov.au/fwo/IDD60801/IDD60801.94112.json